PWSweather.com
Personal Weather Stations
Station Observations
CANDIOTINO
Barrio Candioti Norte, Santa FeAR 3000

Barrio Candioti NorteSanta FeAR 3000

Lat: -31.632778, Lon: -60.695556

Elevation: 69

Station Type: WH-1081

http://www.eltiempoensantafe.com.ar

Latest ConditionsUpdated 7:00:02 AM GMT-03:57 Thursday, Jul 18, 2019
Currently Today's Max Today's Min Today's Average
Temperature 53.1°F11.7°C 57.0°F13.9°C 52.5°F11.4°C 54.0°F12.2°C
Dew Point 49.3°F9.6°C 49.3°F9.6°C 46.1°F7.8°C 47.9°F8.8°C
Winds 2.2 mph E3.5 kmh E 6.9 mph -11.1 kmh - - 3.1 mph 5.0 kmh
Wind Gusts 6.9 mph11.1 kmh 12.1 mph19.5 kmh - -
Humidity 87% 87% 73% 80%
Pressure 29.91 in1012.9 mb 29.91 in1012.9 mb 29.86 in1011.2 mb -
Hour Temp Dew Point Humidity Winds Wind Gusts Pressure Precip Precip Rate Daily Precip Total
07:00 AM 53.1°F11.7°C 49.3°F9.6°C 87% 2.2 mph E3.5 kmh E 6.9 mph11.1 kmh 29.91 in1012.9 mb 0.00 in0.0 mm 0.00 in0.0 mm 0.00 in0.0 mm
06:45 AM 53.1°F11.7°C 49.3°F9.6°C 87% 2.2 mph ENE3.5 kmh ENE 6.9 mph11.1 kmh 29.90 in1012.5 mb 0.00 in0.0 mm 0.00 in0.0 mm 0.00 in0.0 mm
06:30 AM 53.1°F11.7°C 49.3°F9.6°C 87% 2.2 mph NE3.5 kmh NE 7.6 mph12.2 kmh 29.90 in1012.5 mb 0.00 in0.0 mm 0.00 in0.0 mm 0.00 in0.0 mm
06:15 AM 52.7°F11.5°C 48.6°F9.2°C 86% 2.2 mph NE3.5 kmh NE 5.4 mph8.7 kmh 29.89 in1012.2 mb 0.00 in0.0 mm 0.00 in0.0 mm 0.00 in0.0 mm
06:00 AM 52.5°F11.4°C 48.5°F9.2°C 86% 0.7 mph NE1.1 kmh NE 6.0 mph9.7 kmh 29.88 in1011.9 mb 0.00 in0.0 mm 0.00 in0.0 mm 0.00 in0.0 mm
05:45 AM 52.7°F11.5°C 48.3°F9.1°C 85% 0.7 mph N1.1 kmh N 6.9 mph11.1 kmh 29.88 in1011.9 mb 0.00 in0.0 mm 0.00 in0.0 mm 0.00 in0.0 mm
05:30 AM 52.9°F11.6°C 48.5°F9.2°C 85% 2.2 mph NE3.5 kmh NE 5.4 mph8.7 kmh 29.88 in1011.9 mb 0.00 in0.0 mm 0.00 in0.0 mm 0.00 in0.0 mm
05:15 AM 53.1°F11.7°C 48.7°F9.3°C 85% 1.6 mph NNE2.6 kmh NNE 6.0 mph9.7 kmh 29.87 in1011.5 mb 0.00 in0.0 mm 0.00 in0.0 mm 0.00 in0.0 mm
05:00 AM 53.4°F11.9°C 48.7°F9.3°C 84% 2.2 mph NNE3.5 kmh NNE 6.9 mph11.1 kmh 29.87 in1011.5 mb 0.00 in0.0 mm 0.00 in0.0 mm 0.00 in0.0 mm
04:45 AM 53.6°F12.0°C 48.6°F9.2°C 83% 1.6 mph N2.6 kmh N 9.8 mph15.8 kmh 29.87 in1011.5 mb 0.00 in0.0 mm 0.00 in0.0 mm 0.00 in0.0 mm
04:30 AM 53.4°F11.9°C 48.4°F9.1°C 83% 5.4 mph N8.7 kmh N 8.3 mph13.4 kmh 29.86 in1011.2 mb 0.00 in0.0 mm 0.00 in0.0 mm 0.00 in0.0 mm
04:15 AM 53.2°F11.8°C 48.2°F9.0°C 83% 1.6 mph N2.6 kmh N 9.8 mph15.8 kmh 29.87 in1011.5 mb 0.00 in0.0 mm 0.00 in0.0 mm 0.00 in0.0 mm
04:00 AM 53.1°F11.7°C 47.7°F8.7°C 82% 3.8 mph NNE6.1 kmh NNE 8.3 mph13.4 kmh 29.87 in1011.5 mb 0.00 in0.0 mm 0.00 in0.0 mm 0.00 in0.0 mm
03:45 AM 53.1°F11.7°C 47.7°F8.7°C 82% 4.5 mph NNE7.2 kmh NNE 9.2 mph14.8 kmh 29.88 in1011.9 mb 0.00 in0.0 mm 0.00 in0.0 mm 0.00 in0.0 mm
03:30 AM 52.9°F11.6°C 47.5°F8.6°C 82% 1.6 mph NNE2.6 kmh NNE 9.2 mph14.8 kmh 29.88 in1011.9 mb 0.00 in0.0 mm 0.00 in0.0 mm 0.00 in0.0 mm
03:15 AM 53.1°F11.7°C 47.1°F8.4°C 80% 3.1 mph NE5.0 kmh NE 7.6 mph12.2 kmh 29.89 in1012.2 mb 0.00 in0.0 mm 0.00 in0.0 mm 0.00 in0.0 mm
03:00 AM 53.4°F11.9°C 47.1°F8.4°C 79% 4.5 mph NE7.2 kmh NE 12.1 mph19.5 kmh 29.88 in1011.9 mb 0.00 in0.0 mm 0.00 in0.0 mm 0.00 in0.0 mm
02:45 AM 53.4°F11.9°C 47.1°F8.4°C 79% 3.8 mph NNE6.1 kmh NNE 9.8 mph15.8 kmh 29.88 in1011.9 mb 0.00 in0.0 mm 0.00 in0.0 mm 0.00 in0.0 mm
02:30 AM 53.4°F11.9°C 46.7°F8.2°C 78% 3.8 mph N6.1 kmh N 11.4 mph18.3 kmh 29.90 in1012.5 mb 0.00 in0.0 mm 0.00 in0.0 mm 0.00 in0.0 mm
02:15 AM 53.6°F12.0°C 46.2°F7.9°C 76% 6.9 mph N11.1 kmh N 10.7 mph17.2 kmh 29.90 in1012.5 mb 0.00 in0.0 mm 0.00 in0.0 mm 0.00 in0.0 mm
02:00 AM 53.8°F12.1°C 46.1°F7.8°C 75% 3.1 mph N5.0 kmh N 9.2 mph14.8 kmh 29.90 in1012.5 mb 0.00 in0.0 mm 0.00 in0.0 mm 0.00 in0.0 mm
01:45 AM 54.5°F12.5°C 46.4°F8.0°C 74% 2.2 mph N3.5 kmh N 11.4 mph18.3 kmh 29.90 in1012.5 mb 0.00 in0.0 mm 0.00 in0.0 mm 0.00 in0.0 mm
01:30 AM 55.4°F13.0°C 46.9°F8.3°C 73% 3.8 mph N6.1 kmh N 9.2 mph14.8 kmh 29.91 in1012.9 mb 0.00 in0.0 mm 0.00 in0.0 mm 0.00 in0.0 mm
01:15 AM 55.9°F13.3°C 47.4°F8.6°C 73% 5.4 mph N8.7 kmh N 11.4 mph18.3 kmh 29.91 in1012.9 mb 0.00 in0.0 mm 0.00 in0.0 mm 0.00 in0.0 mm
01:00 AM 56.1°F13.4°C 47.6°F8.7°C 73% 6.0 mph N9.7 kmh N 9.2 mph14.8 kmh 29.90 in1012.5 mb 0.00 in0.0 mm 0.00 in0.0 mm 0.00 in0.0 mm
12:45 AM 56.3°F13.5°C 47.8°F8.8°C 73% 2.2 mph N3.5 kmh N 9.8 mph15.8 kmh 29.90 in1012.5 mb 0.00 in0.0 mm 0.00 in0.0 mm 0.00 in0.0 mm
12:30 AM 56.5°F13.6°C 47.9°F8.8°C 73% 3.1 mph NNE5.0 kmh NNE 10.7 mph17.2 kmh 29.91 in1012.9 mb 0.00 in0.0 mm 0.00 in0.0 mm 0.00 in0.0 mm
12:15 AM 56.7°F13.7°C 48.5°F9.2°C 74% 3.8 mph NNE6.1 kmh NNE 9.2 mph14.8 kmh 29.89 in1012.2 mb 0.00 in0.0 mm 0.00 in0.0 mm 0.00 in0.0 mm
12:00 AM 57.0°F13.9°C 48.8°F9.3°C 74% 4.5 mph N7.2 kmh N 9.8 mph15.8 kmh 29.90 in1012.5 mb 0.00 in0.0 mm 0.00 in0.0 mm 0.00 in0.0 mm